sensor_id;sensor_type;location;lat;lon;timestamp;pressure;altitude;pressure_sealevel;temperature;humidity
18436;BME280;9346;52.006;4.720;2022-11-12T00:00:43;103048.44;;;7.99;100.00
18436;BME280;9346;52.006;4.720;2022-11-12T00:03:11;103044.84;;;7.99;100.00
18436;BME280;9346;52.006;4.720;2022-11-12T00:05:37;103041.44;;;7.97;100.00
18436;BME280;9346;52.006;4.720;2022-11-12T00:08:05;103032.38;;;7.96;100.00
18436;BME280;9346;52.006;4.720;2022-11-12T00:10:32;103038.06;;;7.95;100.00
18436;BME280;9346;52.006;4.720;2022-11-12T00:12:59;103047.97;;;7.89;100.00
18436;BME280;9346;52.006;4.720;2022-11-12T00:15:26;103049.41;;;7.85;100.00
18436;BME280;9346;52.006;4.720;2022-11-12T00:17:55;103050.47;;;7.84;100.00
18436;BME280;9346;52.006;4.720;2022-11-12T00:20:23;103044.13;;;7.84;100.00
18436;BME280;9346;52.006;4.720;2022-11-12T00:22:49;103035.47;;;7.80;100.00
18436;BME280;9346;52.006;4.720;2022-11-12T00:25:17;103035.69;;;7.79;100.00
18436;BME280;9346;52.006;4.720;2022-11-12T00:27:44;103041.56;;;7.76;100.00
18436;BME280;9346;52.006;4.720;2022-11-12T00:30:12;103042.41;;;7.76;100.00
18436;BME280;9346;52.006;4.720;2022-11-12T00:32:39;103047.06;;;7.76;100.00
18436;BME280;9346;52.006;4.720;2022-11-12T00:35:10;103034.19;;;7.76;100.00
18436;BME280;9346;52.006;4.720;2022-11-12T00:37:37;103046.84;;;7.77;100.00
18436;BME280;9346;52.006;4.720;2022-11-12T00:40:06;103040.31;;;7.78;100.00
18436;BME280;9346;52.006;4.720;2022-11-12T00:42:33;103037.34;;;7.80;100.00
18436;BME280;9346;52.006;4.720;2022-11-12T00:45:01;103052.13;;;7.79;100.00
18436;BME280;9346;52.006;4.720;2022-11-12T00:47:28;103055.09;;;7.77;100.00
18436;BME280;9346;52.006;4.720;2022-11-12T00:49:55;103055.47;;;7.74;100.00
18436;BME280;9346;52.006;4.720;2022-11-12T00:52:24;103051.69;;;7.75;100.00
18436;BME280;9346;52.006;4.720;2022-11-12T00:54:52;103044.72;;;7.79;100.00
18436;BME280;9346;52.006;4.720;2022-11-12T00:57:19;103044.53;;;7.81;100.00
18436;BME280;9346;52.006;4.720;2022-11-12T00:59:46;103040.56;;;7.83;100.00
18436;BME280;9346;52.006;4.720;2022-11-12T01:02:13;103038.44;;;7.85;100.00
18436;BME280;9346;52.006;4.720;2022-11-12T01:04:41;103040.16;;;7.86;100.00
18436;BME280;9346;52.006;4.720;2022-11-12T01:07:08;103033.81;;;7.86;100.00
18436;BME280;9346;52.006;4.720;2022-11-12T01:09:36;103044.97;;;7.84;100.00
18436;BME280;9346;52.006;4.720;2022-11-12T01:12:04;103050.88;;;7.81;100.00
18436;BME280;9346;52.006;4.720;2022-11-12T01:14:35;103053.81;;;7.80;100.00
18436;BME280;9346;52.006;4.720;2022-11-12T01:17:02;103049.19;;;7.80;100.00
18436;BME280;9346;52.006;4.720;2022-11-12T01:19:29;103058.03;;;7.82;100.00
18436;BME280;9346;52.006;4.720;2022-11-12T01:21:56;103063.34;;;7.84;100.00
18436;BME280;9346;52.006;4.720;2022-11-12T01:24:23;103069.28;;;7.87;100.00
18436;BME280;9346;52.006;4.720;2022-11-12T01:26:52;103074.16;;;7.92;100.00
18436;BME280;9346;52.006;4.720;2022-11-12T01:29:19;103061.72;;;7.96;100.00
18436;BME280;9346;52.006;4.720;2022-11-12T01:31:46;103065.75;;;8.00;100.00
18436;BME280;9346;52.006;4.720;2022-11-12T01:34:13;103066.59;;;8.00;100.00
18436;BME280;9346;52.006;4.720;2022-11-12T01:36:41;103064.50;;;8.02;100.00
18436;BME280;9346;52.006;4.720;2022-11-12T01:39:08;103068.53;;;8.06;100.00
18436;BME280;9346;52.006;4.720;2022-11-12T01:41:36;103066.19;;;8.10;100.00
18436;BME280;9346;52.006;4.720;2022-11-12T01:44:21;103050.84;;;8.15;100.00
18436;BME280;9346;52.006;4.720;2022-11-12T01:46:59;103063.09;;;8.19;100.00
18436;BME280;9346;52.006;4.720;2022-11-12T01:49:31;103052.34;;;8.24;100.00
18436;BME280;9346;52.006;4.720;2022-11-12T01:52:07;103052.16;;;8.26;100.00
18436;BME280;9346;52.006;4.720;2022-11-12T01:54:37;103055.34;;;8.29;100.00
18436;BME280;9346;52.006;4.720;2022-11-12T01:57:05;103046.69;;;8.32;100.00
18436;BME280;9346;52.006;4.720;2022-11-12T01:59:39;103049.66;;;8.37;100.00
18436;BME280;9346;52.006;4.720;2022-11-12T02:02:08;103056.88;;;8.38;100.00
18436;BME280;9346;52.006;4.720;2022-11-12T02:04:36;103055.81;;;8.39;100.00
18436;BME280;9346;52.006;4.720;2022-11-12T02:07:05;103059.41;;;8.40;100.00
18436;BME280;9346;52.006;4.720;2022-11-12T02:09:33;103051.78;;;8.42;100.00
18436;BME280;9346;52.006;4.720;2022-11-12T02:12:01;103052.44;;;8.44;100.00
18436;BME280;9346;52.006;4.720;2022-11-12T02:14:29;103055.63;;;8.47;100.00
18436;BME280;9346;52.006;4.720;2022-11-12T02:16:57;103051.16;;;8.46;100.00
18436;BME280;9346;52.006;4.720;2022-11-12T02:19:25;103044.63;;;8.47;100.00
18436;BME280;9346;52.006;4.720;2022-11-12T02:21:54;103035.34;;;8.48;100.00
18436;BME280;9346;52.006;4.720;2022-11-12T02:24:34;103038.28;;;8.53;100.00
18436;BME280;9346;52.006;4.720;2022-11-12T02:27:03;103041.28;;;8.58;100.00
18436;BME280;9346;52.006;4.720;2022-11-12T02:29:32;103042.97;;;8.59;100.00
18436;BME280;9346;52.006;4.720;2022-11-12T02:31:59;103033.69;;;8.60;100.00
18436;BME280;9346;52.006;4.720;2022-11-12T02:34:26;103040.22;;;8.59;100.00
18436;BME280;9346;52.006;4.720;2022-11-12T02:36:55;103036.44;;;8.60;100.00
18436;BME280;9346;52.006;4.720;2022-11-12T02:39:22;103030.72;;;8.62;100.00
18436;BME280;9346;52.006;4.720;2022-11-12T02:41:50;103030.06;;;8.66;100.00
18436;BME280;9346;52.006;4.720;2022-11-12T02:44:16;103024.56;;;8.66;100.00
18436;BME280;9346;52.006;4.720;2022-11-12T02:46:43;103024.16;;;8.69;100.00
18436;BME280;9346;52.006;4.720;2022-11-12T02:49:10;103023.13;;;8.70;100.00
18436;BME280;9346;52.006;4.720;2022-11-12T02:51:37;103027.56;;;8.71;100.00
18436;BME280;9346;52.006;4.720;2022-11-12T02:54:06;103021.84;;;8.73;100.00
18436;BME280;9346;52.006;4.720;2022-11-12T02:56:33;103027.13;;;8.74;100.00
18436;BME280;9346;52.006;4.720;2022-11-12T02:59:00;103031.56;;;8.75;100.00
18436;BME280;9346;52.006;4.720;2022-11-12T03:01:28;103025.66;;;8.78;100.00
18436;BME280;9346;52.006;4.720;2022-11-12T03:03:55;103030.94;;;8.80;100.00
18436;BME280;9346;52.006;4.720;2022-11-12T03:06:22;103022.91;;;8.78;100.00
18436;BME280;9346;52.006;4.720;2022-11-12T03:08:49;103038.13;;;8.74;100.00
18436;BME280;9346;52.006;4.720;2022-11-12T03:11:17;103039.41;;;8.72;100.00
18436;BME280;9346;52.006;4.720;2022-11-12T03:13:44;103041.28;;;8.71;100.00
18436;BME280;9346;52.006;4.720;2022-11-12T03:16:11;103039.19;;;8.73;100.00
18436;BME280;9346;52.006;4.720;2022-11-12T03:18:39;103028.22;;;8.73;100.00
18436;BME280;9346;52.006;4.720;2022-11-12T03:21:06;103037.47;;;8.72;100.00
18436;BME280;9346;52.006;4.720;2022-11-12T03:23:33;103039.41;;;8.72;100.00
18436;BME280;9346;52.006;4.720;2022-11-12T03:26:02;103033.06;;;8.71;100.00
18436;BME280;9346;52.006;4.720;2022-11-12T03:28:31;103038.97;;;8.68;100.00
18436;BME280;9346;52.006;4.720;2022-11-12T03:30:59;103042.97;;;8.66;100.00
18436;BME280;9346;52.006;4.720;2022-11-12T03:33:26;103040.22;;;8.66;100.00
18436;BME280;9346;52.006;4.720;2022-11-12T03:35:53;103034.75;;;8.66;100.00
18436;BME280;9346;52.006;4.720;2022-11-12T03:38:21;103037.69;;;8.64;100.00
18436;BME280;9346;52.006;4.720;2022-11-12T03:40:48;103041.72;;;8.62;100.00
18436;BME280;9346;52.006;4.720;2022-11-12T03:43:15;103040.63;;;8.56;100.00
18436;BME280;9346;52.006;4.720;2022-11-12T03:45:44;103040.41;;;8.51;100.00
18436;BME280;9346;52.006;4.720;2022-11-12T03:48:12;103035.75;;;8.52;100.00
18436;BME280;9346;52.006;4.720;2022-11-12T03:50:39;103028.56;;;8.51;100.00
18436;BME280;9346;52.006;4.720;2022-11-12T03:53:06;103039.16;;;8.47;100.00
18436;BME280;9346;52.006;4.720;2022-11-12T03:55:33;103037.44;;;8.46;100.00
18436;BME280;9346;52.006;4.720;2022-11-12T03:58:00;103035.97;;;8.44;100.00
18436;BME280;9346;52.006;4.720;2022-11-12T04:00:28;103041.41;;;8.37;100.00
18436;BME280;9346;52.006;4.720;2022-11-12T04:02:58;103040.59;;;8.37;100.00
18436;BME280;9346;52.006;4.720;2022-11-12T04:05:25;103030.22;;;8.32;100.00
18436;BME280;9346;52.006;4.720;2022-11-12T04:08:12;103042.28;;;8.31;100.00
18436;BME280;9346;52.006;4.720;2022-11-12T04:11:04;103039.06;;;8.28;100.00
18436;BME280;9346;52.006;4.720;2022-11-12T04:13:31;103041.59;;;8.23;100.00
18436;BME280;9346;52.006;4.720;2022-11-12T04:16:00;103035.41;;;8.14;100.00
18436;BME280;9346;52.006;4.720;2022-11-12T04:18:48;103032.03;;;8.12;100.00
18436;BME280;9346;52.006;4.720;2022-11-12T04:21:39;103032.66;;;8.14;100.00
18436;BME280;9346;52.006;4.720;2022-11-12T04:24:23;103026.13;;;8.15;100.00
18436;BME280;9346;52.006;4.720;2022-11-12T04:27:09;103028.88;;;8.15;100.00
18436;BME280;9346;52.006;4.720;2022-11-12T04:29:36;103034.78;;;8.12;100.00
18436;BME280;9346;52.006;4.720;2022-11-12T04:32:21;103033.91;;;8.12;100.00
18436;BME280;9346;52.006;4.720;2022-11-12T04:34:51;103031.63;;;8.15;100.00
18436;BME280;9346;52.006;4.720;2022-11-12T04:37:19;103024.66;;;8.19;100.00
18436;BME280;9346;52.006;4.720;2022-11-12T04:39:48;103024.66;;;8.19;100.00
18436;BME280;9346;52.006;4.720;2022-11-12T04:42:15;103019.38;;;8.18;100.00
18436;BME280;9346;52.006;4.720;2022-11-12T04:45:13;103022.31;;;8.16;100.00
18436;BME280;9346;52.006;4.720;2022-11-12T04:47:41;103016.19;;;8.14;100.00
18436;BME280;9346;52.006;4.720;2022-11-12T04:50:15;103009.41;;;8.10;100.00
18436;BME280;9346;52.006;4.720;2022-11-12T04:52:43;103010.47;;;8.09;100.00
18436;BME280;9346;52.006;4.720;2022-11-12T04:55:10;103011.09;;;8.11;100.00
18436;BME280;9346;52.006;4.720;2022-11-12T04:57:37;103008.34;;;8.11;100.00
18436;BME280;9346;52.006;4.720;2022-11-12T05:00:05;103012.81;;;8.12;100.00
18436;BME280;9346;52.006;4.720;2022-11-12T05:02:33;103003.50;;;8.13;100.00
18436;BME280;9346;52.006;4.720;2022-11-12T05:04:59;102991.69;;;8.13;100.00
18436;BME280;9346;52.006;4.720;2022-11-12T05:07:30;102995.50;;;8.12;100.00
18436;BME280;9346;52.006;4.720;2022-11-12T05:09:58;102999.06;;;8.06;100.00
18436;BME280;9346;52.006;4.720;2022-11-12T05:12:25;102992.09;;;8.03;100.00
18436;BME280;9346;52.006;4.720;2022-11-12T05:14:52;102990.41;;;8.02;100.00
18436;BME280;9346;52.006;4.720;2022-11-12T05:17:19;102994.16;;;8.01;100.00
18436;BME280;9346;52.006;4.720;2022-11-12T05:19:46;102979.41;;;8.02;100.00
18436;BME280;9346;52.006;4.720;2022-11-12T05:22:12;102979.41;;;8.02;100.00
18436;BME280;9346;52.006;4.720;2022-11-12T05:24:42;102975.16;;;8.00;100.00
18436;BME280;9346;52.006;4.720;2022-11-12T05:27:12;102970.53;;;8.00;100.00
18436;BME280;9346;52.006;4.720;2022-11-12T05:29:40;102979.38;;;7.96;100.00
18436;BME280;9346;52.006;4.720;2022-11-12T05:32:08;102971.34;;;7.94;100.00
18436;BME280;9346;52.006;4.720;2022-11-12T05:34:37;102969.66;;;7.93;100.00
18436;BME280;9346;52.006;4.720;2022-11-12T05:37:06;102971.75;;;7.91;100.00
18436;BME280;9346;52.006;4.720;2022-11-12T05:39:34;102972.81;;;7.90;100.00
18436;BME280;9346;52.006;4.720;2022-11-12T05:42:02;102968.81;;;7.86;100.00
18436;BME280;9346;52.006;4.720;2022-11-12T05:44:30;102966.47;;;7.83;100.00
18436;BME280;9346;52.006;4.720;2022-11-12T05:46:57;102973.63;;;7.84;100.00
18436;BME280;9346;52.006;4.720;2022-11-12T05:49:25;102977.44;;;7.83;100.00
18436;BME280;9346;52.006;4.720;2022-11-12T05:51:52;102986.91;;;7.81;100.00
18436;BME280;9346;52.006;4.720;2022-11-12T05:54:20;102965.38;;;7.78;100.00
18436;BME280;9346;52.006;4.720;2022-11-12T05:56:50;102967.28;;;7.77;100.00
18436;BME280;9346;52.006;4.720;2022-11-12T05:59:20;102975.72;;;7.76;100.00
18436;BME280;9346;52.006;4.720;2022-11-12T06:01:47;102972.53;;;7.72;100.00
18436;BME280;9346;52.006;4.720;2022-11-12T06:04:14;102983.91;;;7.69;100.00
18436;BME280;9346;52.006;4.720;2022-11-12T06:06:43;102993.59;;;7.65;100.00
18436;BME280;9346;52.006;4.720;2022-11-12T06:09:10;102976.72;;;7.62;100.00
18436;BME280;9346;52.006;4.720;2022-11-12T06:11:38;102980.69;;;7.59;100.00
18436;BME280;9346;52.006;4.720;2022-11-12T06:14:05;102982.16;;;7.55;100.00
18436;BME280;9346;52.006;4.720;2022-11-12T06:16:34;102987.59;;;7.49;100.00
18436;BME280;9346;52.006;4.720;2022-11-12T06:19:01;102985.03;;;7.41;100.00
18436;BME280;9346;52.006;4.720;2022-11-12T06:21:29;102993.44;;;7.39;100.00
18436;BME280;9346;52.006;4.720;2022-11-12T06:23:57;102995.53;;;7.37;100.00
18436;BME280;9346;52.006;4.720;2022-11-12T06:26:26;103000.59;;;7.34;100.00
18436;BME280;9346;52.006;4.720;2022-11-12T06:28:54;102995.50;;;7.31;100.00
18436;BME280;9346;52.006;4.720;2022-11-12T06:31:21;102985.81;;;7.28;100.00
18436;BME280;9346;52.006;4.720;2022-11-12T06:33:50;102996.38;;;7.31;100.00
18436;BME280;9346;52.006;4.720;2022-11-12T06:36:19;102992.97;;;7.29;100.00
18436;BME280;9346;52.006;4.720;2022-11-12T06:38:46;102989.38;;;7.29;100.00
18436;BME280;9346;52.006;4.720;2022-11-12T06:41:14;102991.63;;;7.19;100.00
18436;BME280;9346;52.006;4.720;2022-11-12T06:43:41;102994.72;;;7.09;100.00
18436;BME280;9346;52.006;4.720;2022-11-12T06:46:10;102985.81;;;7.01;100.00
18436;BME280;9346;52.006;4.720;2022-11-12T06:48:39;102991.00;;;6.89;100.00
18436;BME280;9346;52.006;4.720;2022-11-12T06:51:11;102990.13;;;6.88;100.00
18436;BME280;9346;52.006;4.720;2022-11-12T06:53:41;103000.44;;;6.86;100.00
18436;BME280;9346;52.006;4.720;2022-11-12T06:56:08;103001.50;;;6.85;100.00
18436;BME280;9346;52.006;4.720;2022-11-12T06:58:35;103000.63;;;6.85;100.00
18436;BME280;9346;52.006;4.720;2022-11-12T07:01:08;103010.38;;;6.88;100.00
18436;BME280;9346;52.006;4.720;2022-11-12T07:03:37;103007.84;;;6.86;100.00
18436;BME280;9346;52.006;4.720;2022-11-12T07:06:09;103006.13;;;6.85;100.00
18436;BME280;9346;52.006;4.720;2022-11-12T07:08:37;103015.84;;;6.88;100.00
18436;BME280;9346;52.006;4.720;2022-11-12T07:11:05;103008.66;;;6.86;100.00
18436;BME280;9346;52.006;4.720;2022-11-12T07:13:34;103010.56;;;6.86;100.00
18436;BME280;9346;52.006;4.720;2022-11-12T07:16:03;103006.97;;;6.85;100.00
18436;BME280;9346;52.006;4.720;2022-11-12T07:18:32;103009.03;;;6.83;100.00
18436;BME280;9346;52.006;4.720;2022-11-12T07:21:01;103012.38;;;6.79;100.00
18436;BME280;9346;52.006;4.720;2022-11-12T07:23:32;103015.94;;;6.73;100.00
18436;BME280;9346;52.006;4.720;2022-11-12T07:26:00;103014.22;;;6.72;100.00
18436;BME280;9346;52.006;4.720;2022-11-12T07:28:28;103013.81;;;6.75;100.00
18436;BME280;9346;52.006;4.720;2022-11-12T07:30:56;103003.06;;;6.73;100.00
18436;BME280;9346;52.006;4.720;2022-11-12T07:33:24;103007.44;;;6.68;100.00
18436;BME280;9346;52.006;4.720;2022-11-12T07:35:58;103014.81;;;6.67;100.00
18436;BME280;9346;52.006;4.720;2022-11-12T07:38:26;103013.31;;;6.65;100.00
18436;BME280;9346;52.006;4.720;2022-11-12T07:40:59;103011.16;;;6.60;100.00
18436;BME280;9346;52.006;4.720;2022-11-12T07:43:27;103014.09;;;6.59;100.00
18436;BME280;9346;52.006;4.720;2022-11-12T07:45:57;103019.19;;;6.62;100.00
18436;BME280;9346;52.006;4.720;2022-11-12T07:48:24;103021.53;;;6.65;100.00
18436;BME280;9346;52.006;4.720;2022-11-12T07:50:51;103024.06;;;6.66;100.00
18436;BME280;9346;52.006;4.720;2022-11-12T07:53:18;103023.59;;;6.63;100.00
18436;BME280;9346;52.006;4.720;2022-11-12T07:55:52;103016.44;;;6.62;100.00
18436;BME280;9346;52.006;4.720;2022-11-12T07:58:20;103023.16;;;6.59;100.00
18436;BME280;9346;52.006;4.720;2022-11-12T08:00:48;103022.97;;;6.61;100.00
18436;BME280;9346;52.006;4.720;2022-11-12T08:03:15;103022.97;;;6.61;100.00
18436;BME280;9346;52.006;4.720;2022-11-12T08:05:42;103029.28;;;6.61;100.00
18436;BME280;9346;52.006;4.720;2022-11-12T08:08:10;103028.84;;;6.58;100.00
18436;BME280;9346;52.006;4.720;2022-11-12T08:10:37;103029.88;;;6.57;100.00
18436;BME280;9346;52.006;4.720;2022-11-12T08:13:04;103032.63;;;6.57;100.00
18436;BME280;9346;52.006;4.720;2022-11-12T08:15:33;103027.78;;;6.59;100.00
18436;BME280;9346;52.006;4.720;2022-11-12T08:18:00;103027.41;;;6.62;100.00
18436;BME280;9346;52.006;4.720;2022-11-12T08:20:28;103036.91;;;6.66;100.00
18436;BME280;9346;52.006;4.720;2022-11-12T08:22:58;103035.50;;;6.70;100.00
18436;BME280;9346;52.006;4.720;2022-11-12T08:25:25;103038.47;;;6.75;100.00
18436;BME280;9346;52.006;4.720;2022-11-12T08:27:55;103033.06;;;6.81;100.00
18436;BME280;9346;52.006;4.720;2022-11-12T08:30:22;103041.53;;;6.86;100.00
18436;BME280;9346;52.006;4.720;2022-11-12T08:32:57;103049.38;;;6.89;100.00
18436;BME280;9346;52.006;4.720;2022-11-12T08:35:24;103039.50;;;6.95;100.00
18436;BME280;9346;52.006;4.720;2022-11-12T08:37:56;103048.66;;;7.02;100.00
18436;BME280;9346;52.006;4.720;2022-11-12T08:40:24;103059.25;;;7.12;100.00
18436;BME280;9346;52.006;4.720;2022-11-12T08:42:56;103058.28;;;7.19;100.00
18436;BME280;9346;52.006;4.720;2022-11-12T08:45:23;103058.75;;;7.29;100.00
18436;BME280;9346;52.006;4.720;2022-11-12T08:47:50;103053.13;;;7.37;100.00
18436;BME280;9346;52.006;4.720;2022-11-12T08:50:19;103055.53;;;7.47;100.00
18436;BME280;9346;52.006;4.720;2022-11-12T08:52:46;103054.75;;;7.59;100.00
18436;BME280;9346;52.006;4.720;2022-11-12T08:55:13;103060.31;;;7.72;100.00
18436;BME280;9346;52.006;4.720;2022-11-12T08:57:40;103051.72;;;7.82;100.00
18436;BME280;9346;52.006;4.720;2022-11-12T09:00:09;103056.63;;;7.93;100.00
18436;BME280;9346;52.006;4.720;2022-11-12T09:02:36;103053.53;;;8.02;100.00
18436;BME280;9346;52.006;4.720;2022-11-12T09:05:04;103068.53;;;8.13;100.00
18436;BME280;9346;52.006;4.720;2022-11-12T09:07:32;103078.13;;;8.23;100.00
18436;BME280;9346;52.006;4.720;2022-11-12T09:09:59;103062.13;;;8.33;100.00
18436;BME280;9346;52.006;4.720;2022-11-12T09:12:26;103070.19;;;8.41;100.00
18436;BME280;9346;52.006;4.720;2022-11-12T09:14:53;103069.56;;;8.52;100.00
18436;BME280;9346;52.006;4.720;2022-11-12T09:17:20;103066.00;;;8.58;100.00
18436;BME280;9346;52.006;4.720;2022-11-12T09:19:48;103064.97;;;8.66;100.00
18436;BME280;9346;52.006;4.720;2022-11-12T09:22:15;103065.81;;;8.73;100.00
18436;BME280;9346;52.006;4.720;2022-11-12T09:24:44;103073.03;;;8.80;100.00
18436;BME280;9346;52.006;4.720;2022-11-12T09:27:11;103064.16;;;8.85;100.00
18436;BME280;9346;52.006;4.720;2022-11-12T09:29:38;103066.47;;;8.94;100.00
18436;BME280;9346;52.006;4.720;2022-11-12T09:32:06;103066.28;;;9.02;100.00
18436;BME280;9346;52.006;4.720;2022-11-12T09:34:33;103056.53;;;9.13;100.00
18436;BME280;9346;52.006;4.720;2022-11-12T09:36:59;103063.13;;;9.19;100.00
18436;BME280;9346;52.006;4.720;2022-11-12T09:39:27;103056.75;;;9.25;100.00
18436;BME280;9346;52.006;4.720;2022-11-12T09:41:56;103052.09;;;9.32;100.00
18436;BME280;9346;52.006;4.720;2022-11-12T09:44:23;103056.75;;;9.38;100.00
18436;BME280;9346;52.006;4.720;2022-11-12T09:46:52;103054.84;;;9.45;100.00
18436;BME280;9346;52.006;4.720;2022-11-12T09:49:24;103056.06;;;9.55;100.00
18436;BME280;9346;52.006;4.720;2022-11-12T09:51:56;103057.75;;;9.63;100.00
18436;BME280;9346;52.006;4.720;2022-11-12T09:54:27;103054.78;;;9.71;100.00
18436;BME280;9346;52.006;4.720;2022-11-12T09:56:58;103057.50;;;9.77;100.00
18436;BME280;9346;52.006;4.720;2022-11-12T09:59:28;103058.56;;;9.83;100.00
18436;BME280;9346;52.006;4.720;2022-11-12T10:02:00;103054.13;;;9.88;100.00
18436;BME280;9346;52.006;4.720;2022-11-12T10:04:43;103056.63;;;9.96;100.00
18436;BME280;9346;52.006;4.720;2022-11-12T10:07:23;103056.59;;;10.03;100.00
18436;BME280;9346;52.006;4.720;2022-11-12T10:10:00;103056.81;;;10.08;100.00
18436;BME280;9346;52.006;4.720;2022-11-12T10:12:39;103051.06;;;10.16;100.00
18436;BME280;9346;52.006;4.720;2022-11-12T10:15:17;103045.53;;;10.22;100.00
18436;BME280;9346;52.006;4.720;2022-11-12T10:18:08;103040.59;;;10.31;100.00
18436;BME280;9346;52.006;4.720;2022-11-12T10:20:43;103049.50;;;10.39;100.00
18436;BME280;9346;52.006;4.720;2022-11-12T10:23:17;103039.28;;;10.46;100.00
18436;BME280;9346;52.006;4.720;2022-11-12T10:25:47;103045.97;;;10.57;100.00
18436;BME280;9346;52.006;4.720;2022-11-12T10:28:24;103052.53;;;10.62;100.00
18436;BME280;9346;52.006;4.720;2022-11-12T10:30:55;103054.19;;;10.70;100.00
18436;BME280;9346;52.006;4.720;2022-11-12T10:33:29;103052.44;;;10.75;100.00
18436;BME280;9346;52.006;4.720;2022-11-12T10:36:04;103053.63;;;10.86;100.00
18436;BME280;9346;52.006;4.720;2022-11-12T10:38:43;103052.91;;;10.97;100.00
18436;BME280;9346;52.006;4.720;2022-11-12T10:41:18;103057.31;;;11.04;100.00
18436;BME280;9346;52.006;4.720;2022-11-12T10:43:55;103056.00;;;11.07;100.00
18436;BME280;9346;52.006;4.720;2022-11-12T10:46:24;103058.75;;;11.13;100.00
18436;BME280;9346;52.006;4.720;2022-11-12T10:48:55;103058.66;;;11.20;100.00
18436;BME280;9346;52.006;4.720;2022-11-12T10:51:25;103063.28;;;11.26;100.00
18436;BME280;9346;52.006;4.720;2022-11-12T10:53:52;103058.56;;;11.33;100.00
18436;BME280;9346;52.006;4.720;2022-11-12T10:56:25;103059.56;;;11.38;100.00
18436;BME280;9346;52.006;4.720;2022-11-12T10:59:14;103054.34;;;11.49;100.00
18436;BME280;9346;52.006;4.720;2022-11-12T11:01:42;103040.72;;;11.54;100.00
18436;BME280;9346;52.006;4.720;2022-11-12T11:04:26;103050.63;;;11.61;100.00
18436;BME280;9346;52.006;4.720;2022-11-12T11:07:03;103052.06;;;11.70;100.00
18436;BME280;9346;52.006;4.720;2022-11-12T11:09:32;103046.91;;;11.74;100.00
18436;BME280;9346;52.006;4.720;2022-11-12T11:12:00;103041.16;;;11.75;100.00
18436;BME280;9346;52.006;4.720;2022-11-12T11:14:33;103038.56;;;11.80;100.00
18436;BME280;9346;52.006;4.720;2022-11-12T11:17:04;103042.56;;;11.84;100.00
18436;BME280;9346;52.006;4.720;2022-11-12T11:19:36;103034.19;;;11.91;100.00
18436;BME280;9346;52.006;4.720;2022-11-12T11:28:03;103019.97;;;12.05;100.00
18436;BME280;9346;52.006;4.720;2022-11-12T11:30:39;103014.00;;;12.08;100.00
18436;BME280;9346;52.006;4.720;2022-11-12T11:33:28;103009.94;;;12.11;100.00
18436;BME280;9346;52.006;4.720;2022-11-12T11:36:07;103008.16;;;12.16;100.00
18436;BME280;9346;52.006;4.720;2022-11-12T11:38:51;103002.75;;;12.21;100.00
18436;BME280;9346;52.006;4.720;2022-11-12T11:41:40;102991.00;;;12.26;100.00
18436;BME280;9346;52.006;4.720;2022-11-12T11:44:20;102989.25;;;12.31;100.00
18436;BME280;9346;52.006;4.720;2022-11-12T11:47:12;102992.16;;;12.36;100.00
18436;BME280;9346;52.006;4.720;2022-11-12T11:49:57;102985.53;;;12.37;100.00
18436;BME280;9346;52.006;4.720;2022-11-12T11:52:40;102977.25;;;12.37;100.00
18436;BME280;9346;52.006;4.720;2022-11-12T11:55:27;102974.00;;;12.40;100.00
18436;BME280;9346;52.006;4.720;2022-11-12T11:58:05;102973.19;;;12.40;100.00
18436;BME280;9346;52.006;4.720;2022-11-12T12:00:40;102974.63;;;12.42;100.00
18436;BME280;9346;52.006;4.720;2022-11-12T12:03:20;102965.25;;;12.43;100.00
18436;BME280;9346;52.006;4.720;2022-11-12T12:06:12;102962.41;;;12.50;100.00
18436;BME280;9346;52.006;4.720;2022-11-12T12:12:09;102946.72;;;12.73;100.00
18436;BME280;9346;52.006;4.720;2022-11-12T12:14:48;102939.97;;;12.81;100.00
18436;BME280;9346;52.006;4.720;2022-11-12T12:17:31;102938.03;;;12.81;100.00
18436;BME280;9346;52.006;4.720;2022-11-12T12:20:15;102924.84;;;12.83;100.00
18436;BME280;9346;52.006;4.720;2022-11-12T12:22:48;102930.13;;;12.85;100.00
18436;BME280;9346;52.006;4.720;2022-11-12T12:25:19;102926.03;;;12.87;100.00
18436;BME280;9346;52.006;4.720;2022-11-12T12:27:52;102921.59;;;12.86;100.00
18436;BME280;9346;52.006;4.720;2022-11-12T12:30:23;102918.81;;;12.86;100.00
18436;BME280;9346;52.006;4.720;2022-11-12T12:32:55;102921.59;;;12.86;100.00
18436;BME280;9346;52.006;4.720;2022-11-12T12:35:27;102911.97;;;12.89;100.00
18436;BME280;9346;52.006;4.720;2022-11-12T12:38:04;102927.84;;;12.93;100.00
18436;BME280;9346;52.006;4.720;2022-11-12T12:40:38;102921.84;;;12.96;100.00
18436;BME280;9346;52.006;4.720;2022-11-12T12:43:11;102922.06;;;12.95;100.00
18436;BME280;9346;52.006;4.720;2022-11-12T12:45:44;102920.75;;;12.97;100.00
18436;BME280;9346;52.006;4.720;2022-11-12T12:48:14;102914.75;;;13.00;100.00
18436;BME280;9346;52.006;4.720;2022-11-12T12:50:46;102914.53;;;13.02;100.00
18436;BME280;9346;52.006;4.720;2022-11-12T12:53:30;102898.53;;;13.04;100.00
18436;BME280;9346;52.006;4.720;2022-11-12T12:55:58;102878.66;;;13.07;100.00
18436;BME280;9346;52.006;4.720;2022-11-12T12:58:28;102875.78;;;13.13;100.00
18436;BME280;9346;52.006;4.720;2022-11-12T13:01:01;102869.84;;;13.21;100.00
18436;BME280;9346;52.006;4.720;2022-11-12T13:03:48;102880.56;;;13.29;100.00
18436;BME280;9346;52.006;4.720;2022-11-12T13:06:24;102882.84;;;13.32;100.00
18436;BME280;9346;52.006;4.720;2022-11-12T13:08:55;102882.00;;;13.32;100.00
18436;BME280;9346;52.006;4.720;2022-11-12T13:11:47;102884.66;;;13.38;100.00
18436;BME280;9346;52.006;4.720;2022-11-12T13:17:43;102875.97;;;13.35;100.00
18436;BME280;9346;52.006;4.720;2022-11-12T13:23:08;102866.81;;;13.34;100.00
18436;BME280;9346;52.006;4.720;2022-11-12T13:25:37;102856.59;;;13.35;100.00
18436;BME280;9346;52.006;4.720;2022-11-12T13:28:09;102858.53;;;13.34;100.00
18436;BME280;9346;52.006;4.720;2022-11-12T13:31:00;102854.44;;;13.37;100.00